Time;durP1;ratioP1;P1;durP2;ratioP2;P2;SDS_P1;SDS_P2;PMS_P1;PMS_P2;Temp;Humidity;BMP_temperature;BMP_pressure;BME280_temperature;BME280_humidity;BME280_pressure;Samples;Min_cycle;Max_cycle;Signal;HPM_P1;HPM_P2
2022/01/22 00:01:43;;;;;;;8.60;3.43;;;;;;;10.37;100.00;103206.38;5076077;28;20033;-42
2022/01/22 00:04:09;;;;;;;19.23;4.65;;;;;;;10.43;100.00;103207.69;5075941;28;20043;-45
2022/01/22 00:06:35;;;;;;;16.15;4.47;;;;;;;10.69;100.00;103204.50;5075860;28;20036;-44
2022/01/22 00:09:01;;;;;;;14.48;3.28;;;;;;;10.79;100.00;103208.06;5075875;28;20101;-45
2022/01/22 00:11:34;;;;;;;11.30;3.25;;;;;;;10.68;100.00;103192.97;5058058;28;20052;-45
2022/01/22 00:16:43;;;;;;;14.82;3.60;;;;;;;10.47;100.00;103185.88;5076171;28;20049;-41
2022/01/22 00:19:10;;;;;;;10.80;3.90;;;;;;;10.20;100.00;103181.13;5075940;28;20403;-41
2022/01/22 00:21:37;;;;;;;16.20;4.35;;;;;;;10.43;100.00;103195.19;5076114;28;20059;-41
2022/01/22 00:24:03;;;;;;;21.88;5.47;;;;;;;10.81;100.00;103191.84;5075814;28;20036;-44
2022/01/22 00:26:29;;;;;;;15.50;4.30;;;;;;;10.26;100.00;103185.91;5057526;28;20504;-42
2022/01/22 00:28:54;;;;;;;16.37;4.50;;;;;;;10.43;100.00;103183.63;5057850;28;20041;-44
2022/01/22 00:31:20;;;;;;;17.40;4.47;;;;;;;10.18;100.00;103175.94;5075248;28;20047;-45
2022/01/22 00:33:46;;;;;;;16.67;4.35;;;;;;;10.64;100.00;103178.19;5057140;28;20043;-42
2022/01/22 00:36:11;;;;;;;17.57;4.87;;;;;;;10.61;100.00;103181.97;5057610;28;20083;-41
2022/01/22 00:38:37;;;;;;;11.90;5.00;;;;;;;10.68;100.00;103178.72;5058056;28;20331;-43
2022/01/22 00:41:02;;;;;;;19.27;4.88;;;;;;;10.23;100.00;103182.69;5057770;28;20064;-44
2022/01/22 00:43:28;;;;;;;12.77;5.85;;;;;;;10.30;100.00;103189.19;5075379;28;20392;-43
2022/01/22 00:45:53;;;;;;;29.83;7.10;;;;;;;10.64;100.00;103177.31;5040465;28;20056;-42
2022/01/22 00:48:19;;;;;;;13.93;5.38;;;;;;;10.95;100.00;103186.09;5041326;28;20079;-43
2022/01/22 00:50:45;;;;;;;25.02;5.90;;;;;;;10.91;100.00;103187.38;5057297;28;20473;-43
2022/01/22 00:53:10;;;;;;;23.13;6.35;;;;;;;10.16;100.00;103191.25;5057372;28;20032;-43
2022/01/22 00:55:36;;;;;;;18.33;6.47;;;;;;;10.83;100.00;103195.22;5075836;28;20479;-43
2022/01/22 00:58:02;;;;;;;24.67;7.13;;;;;;;10.26;100.00;103193.09;5057166;28;20605;-41
2022/01/22 01:00:27;;;;;;;31.35;8.00;;;;;;;10.39;100.00;103193.72;5057700;28;20366;-41
2022/01/22 01:02:53;;;;;;;29.60;7.72;;;;;;;10.47;100.00;103193.91;5057969;28;20032;-43
2022/01/22 01:05:18;;;;;;;24.98;7.47;;;;;;;10.49;100.00;103198.28;5056829;28;20385;-42
2022/01/22 01:07:44;;;;;;;24.83;8.07;;;;;;;10.58;100.00;103192.97;5075433;28;20048;-46
2022/01/22 01:10:14;;;;;;;24.50;7.70;;;;;;;10.90;100.00;103196.38;5040672;28;20101;-46
2022/01/22 01:12:41;;;;;;;24.10;7.90;;;;;;;10.83;100.00;103200.59;5057210;28;20480;-51
2022/01/22 01:34:09;;;;;;;22.83;8.48;;;;;;;10.51;100.00;103197.19;5057085;28;20090;-42
2022/01/22 01:36:34;;;;;;;32.40;8.95;;;;;;;10.74;100.00;103202.28;5056649;28;20499;-42
2022/01/22 01:39:02;;;;;;;22.07;9.63;;;;;;;10.56;100.00;103199.41;5056812;28;20123;-44
2022/01/22 01:41:41;;;;;;;25.98;8.77;;;;;;;10.61;100.00;103207.91;5056490;28;20277;-44
2022/01/22 01:44:07;;;;;;;18.35;9.38;;;;;;;10.37;100.00;103206.38;5027091;28;20089;-44
2022/01/22 01:46:56;;;;;;;24.00;9.07;;;;;;;10.40;100.00;103203.47;5058880;28;20562;-45
2022/01/22 01:49:23;;;;;;;32.28;10.15;;;;;;;10.79;100.00;103204.53;5056863;28;20068;-42
2022/01/22 01:51:49;;;;;;;31.13;10.43;;;;;;;10.25;100.00;103204.78;5056101;28;20036;-42
2022/01/22 01:54:34;;;;;;;27.85;8.98;;;;;;;10.58;100.00;103205.47;5074176;28;20039;-43
2022/01/22 01:59:47;;;;;;;26.90;10.25;;;;;;;10.69;100.00;103204.50;5056737;28;20094;-50
2022/01/22 02:02:22;;;;;;;32.22;10.43;;;;;;;10.85;100.00;103204.81;5056962;28;20040;-43
2022/01/22 02:04:48;;;;;;;23.80;9.23;;;;;;;10.89;100.00;103206.25;5040172;28;20048;-42
2022/01/22 02:07:15;;;;;;;27.55;9.98;;;;;;;10.85;100.00;103204.00;5056682;28;20032;-42
2022/01/22 02:09:46;;;;;;;21.92;10.00;;;;;;;10.71;100.00;103191.84;5055933;28;20051;-42
2022/01/22 02:23:36;;;;;;;26.85;11.90;;;;;;;10.67;100.00;103206.47;5042514;28;20381;-43
2022/01/22 02:26:06;;;;;;;30.08;11.50;;;;;;;10.90;100.00;103215.13;5056506;28;20186;-42
2022/01/22 02:28:39;;;;;;;23.42;10.55;;;;;;;10.87;100.00;103210.06;5074212;28;20127;-43
2022/01/22 02:31:19;;;;;;;25.92;10.40;;;;;;;11.08;100.00;103209.09;5055884;28;20094;-42
2022/01/22 02:34:07;;;;;;;25.35;12.55;;;;;;;10.85;100.00;103201.31;5056139;28;20036;-46
2022/01/22 02:36:42;;;;;;;31.67;11.30;;;;;;;10.68;100.00;103206.34;5056676;28;20142;-42
2022/01/22 02:39:16;;;;;;;35.55;11.32;;;;;;;10.90;100.00;103202.56;5055573;28;20071;-43
2022/01/22 02:41:46;;;;;;;29.10;11.38;;;;;;;10.92;100.00;103198.91;5056287;28;20381;-43
2022/01/22 02:44:24;;;;;;;26.92;11.27;;;;;;;11.04;100.00;103192.44;5055635;28;20044;-43
2022/01/22 02:46:50;;;;;;;21.20;10.32;;;;;;;10.80;100.00;103190.16;5073588;28;20052;-42
2022/01/22 02:49:16;;;;;;;23.17;10.57;;;;;;;10.64;100.00;103196.06;5038888;28;20506;-43
2022/01/22 02:51:42;;;;;;;34.28;11.63;;;;;;;11.00;100.00;103197.22;5055874;28;20115;-45
2022/01/22 02:54:08;;;;;;;31.10;12.03;;;;;;;11.07;100.00;103200.19;5055866;28;20071;-44
2022/01/22 02:56:33;;;;;;;32.25;10.38;;;;;;;10.60;100.00;103198.16;5022965;28;20285;-43
2022/01/22 02:59:00;;;;;;;35.25;10.95;;;;;;;10.98;100.00;103201.88;5055000;28;20048;-49
2022/01/22 03:01:26;;;;;;;31.33;10.55;;;;;;;11.03;100.00;103204.97;5055420;28;20075;-45
2022/01/22 03:03:53;;;;;;;32.58;11.32;;;;;;;11.04;100.00;103198.63;5076918;28;20037;-45
2022/01/22 03:06:19;;;;;;;31.38;11.52;;;;;;;10.88;100.00;103193.00;5060143;28;20511;-47
2022/01/22 03:08:46;;;;;;;28.80;10.97;;;;;;;11.13;100.00;103199.63;5059689;28;20055;-42
2022/01/22 03:11:19;;;;;;;30.80;9.90;;;;;;;11.14;100.00;103201.31;5077420;28;20067;-42
2022/01/22 03:14:23;;;;;;;38.50;10.10;;;;;;;10.97;100.00;103202.88;5077823;28;20045;-45
2022/01/22 03:16:48;;;;;;;30.40;8.55;;;;;;;10.72;100.00;103194.38;5062440;28;20055;-42
2022/01/22 03:19:18;;;;;;;21.75;9.45;;;;;;;10.80;100.00;103191.03;5059469;28;20477;-41
2022/01/22 03:21:58;;;;;;;34.58;10.95;;;;;;;10.88;100.00;103198.38;5043407;28;20051;-42
2022/01/22 03:27:24;;;;;;;32.15;9.93;;;;;;;10.72;100.00;103205.09;5059694;28;20127;-43
2022/01/22 03:29:51;;;;;;;23.38;9.80;;;;;;;10.94;100.00;103208.50;5044751;28;20036;-43
2022/01/22 03:32:18;;;;;;;25.38;10.10;;;;;;;10.84;100.00;103208.50;5042431;28;20130;-42
2022/01/22 03:34:56;;;;;;;37.83;10.45;;;;;;;10.67;100.00;103202.00;5076602;28;20130;-47
2022/01/22 03:37:26;;;;;;;59.78;12.60;;;;;;;10.90;100.00;103209.78;5076488;28;20090;-44
2022/01/22 03:39:54;;;;;;;23.50;9.25;;;;;;;11.21;100.00;103212.31;5059060;28;20052;-42
2022/01/22 03:42:20;;;;;;;49.55;10.45;;;;;;;11.19;100.00;103212.47;5058737;28;20499;-42
2022/01/22 03:44:46;;;;;;;20.95;10.02;;;;;;;11.02;100.00;103223.88;5077131;28;20025;-42
2022/01/22 03:47:12;;;;;;;19.08;8.88;;;;;;;10.86;100.00;103211.88;5076797;28;20131;-42
2022/01/22 03:49:37;;;;;;;24.27;8.23;;;;;;;10.92;100.00;103214.97;5058977;28;20503;-42
2022/01/22 03:52:06;;;;;;;27.35;10.07;;;;;;;10.98;100.00;103217.94;5042330;28;20044;-45
2022/01/22 03:54:34;;;;;;;28.05;9.80;;;;;;;10.80;100.00;103208.91;5041804;28;20078;-44
2022/01/22 03:56:59;;;;;;;25.05;8.77;;;;;;;10.87;100.00;103204.69;5076920;28;20121;-48
2022/01/22 03:59:31;;;;;;;20.00;8.55;;;;;;;10.57;100.00;103209.13;5043813;28;20048;-47
2022/01/22 04:04:41;;;;;;;29.23;9.73;;;;;;;10.90;100.00;103213.28;5059165;28;20052;-43
2022/01/22 04:09:43;;;;;;;23.48;7.78;;;;;;;10.68;100.00;103211.72;5059164;28;20036;-42
2022/01/22 04:12:12;;;;;;;20.48;9.18;;;;;;;10.95;100.00;103212.00;5058288;28;20071;-45
2022/01/22 04:14:45;;;;;;;23.10;8.30;;;;;;;11.37;100.00;103216.25;5057634;28;20040;-45
2022/01/22 04:25:10;;;;;;;18.23;8.13;;;;;;;11.16;100.00;103207.38;5057673;28;20053;-43
2022/01/22 04:27:36;;;;;;;23.83;9.27;;;;;;;11.13;100.00;103202.31;5057962;28;20044;-41
2022/01/22 04:30:03;;;;;;;24.00;8.17;;;;;;;11.07;100.00;103208.22;5057949;28;20040;-41
2022/01/22 04:32:31;;;;;;;32.90;8.85;;;;;;;10.84;100.00;103211.16;5076337;28;20048;-45
2022/01/22 04:34:57;;;;;;;31.23;9.50;;;;;;;10.74;100.00;103200.44;5075451;28;20036;-42
2022/01/22 04:37:24;;;;;;;25.70;9.23;;;;;;;10.89;100.00;103205.41;5076581;28;20045;-43
2022/01/22 04:39:51;;;;;;;20.67;8.75;;;;;;;10.86;100.00;103203.84;5041278;28;20117;-46
2022/01/22 04:42:18;;;;;;;24.73;8.90;;;;;;;10.75;100.00;103199.47;5075793;28;20119;-42
2022/01/22 04:44:59;;;;;;;23.55;8.88;;;;;;;11.07;100.00;103202.00;5057464;28;20128;-43
2022/01/22 04:47:33;;;;;;;25.52;8.90;;;;;;;10.88;100.00;103199.19;5041447;28;20134;-43
2022/01/22 04:55:31;;;;;;;32.03;9.13;;;;;;;11.23;100.00;103215.69;5043191;28;20155;-43
2022/01/22 04:57:56;;;;;;;34.80;10.10;;;;;;;11.14;100.00;103206.66;5057280;28;20487;-45
2022/01/22 05:00:23;;;;;;;31.13;8.70;;;;;;;11.00;100.00;103207.09;5058078;28;20048;-42
2022/01/22 05:03:07;;;;;;;29.42;9.30;;;;;;;10.81;100.00;103208.78;5075428;28;20481;-46
2022/01/22 05:05:47;;;;;;;29.38;9.75;;;;;;;11.23;100.00;103207.66;5057336;28;20033;-46
2022/01/22 05:08:28;;;;;;;24.20;8.82;;;;;;;11.21;100.00;103204.28;5060002;28;20040;-44
2022/01/22 05:11:09;;;;;;;27.25;7.95;;;;;;;11.50;100.00;103202.56;5075205;28;20040;-45
2022/01/22 05:13:36;;;;;;;26.10;8.30;;;;;;;11.30;100.00;103206.13;5057854;28;20071;-42
2022/01/22 05:16:05;;;;;;;30.33;7.97;;;;;;;11.30;100.00;103202.59;5056691;28;20285;-43
2022/01/22 05:18:38;;;;;;;20.10;8.23;;;;;;;11.45;100.00;103200.31;5057245;28;20041;-44
2022/01/22 05:21:09;;;;;;;22.70;7.80;;;;;;;11.31;100.00;103193.56;5075153;28;20047;-48
2022/01/22 05:23:36;;;;;;;23.65;8.25;;;;;;;11.30;100.00;103192.72;5056585;28;20049;-45
2022/01/22 05:26:05;;;;;;;21.27;7.07;;;;;;;11.55;100.00;103193.13;5055832;28;20131;-44
2022/01/22 05:28:58;;;;;;;26.45;8.23;;;;;;;11.05;100.00;103192.28;5074960;28;20040;-44
2022/01/22 05:37:06;;;;;;;16.88;6.72;;;;;;;11.24;100.00;103193.28;5056944;28;20072;-43
2022/01/22 05:39:34;;;;;;;29.42;7.60;;;;;;;11.02;100.00;103183.72;5056502;28;20044;-43
2022/01/22 05:42:02;;;;;;;22.30;7.07;;;;;;;11.24;100.00;103187.09;5075057;28;20041;-45
2022/01/22 05:44:31;;;;;;;20.67;7.00;;;;;;;11.05;100.00;103192.28;5074277;28;20041;-42
2022/01/22 05:46:59;;;;;;;27.10;7.03;;;;;;;11.39;100.00;103192.84;5039296;28;20049;-41
2022/01/22 05:49:26;;;;;;;25.08;6.63;;;;;;;11.38;100.00;103199.19;5074309;28;20472;-42
2022/01/22 05:51:55;;;;;;;18.80;6.55;;;;;;;11.00;100.00;103197.22;5055959;28;20049;-47
2022/01/22 05:54:49;;;;;;;27.15;6.75;;;;;;;11.08;100.00;103193.03;5055981;28;20055;-45
2022/01/22 06:00:05;;;;;;;22.15;6.43;;;;;;;10.89;100.00;103197.38;5056487;28;20189;-45
2022/01/22 06:02:34;;;;;;;25.92;6.93;;;;;;;10.94;100.00;103205.81;5074083;28;20055;-41
2022/01/22 06:05:01;;;;;;;25.05;7.20;;;;;;;10.94;100.00;103196.94;5040515;28;20044;-44
2022/01/22 06:07:28;;;;;;;19.38;5.97;;;;;;;10.80;100.00;103206.22;5039184;28;20036;-41
2022/01/22 06:14:56;;;;;;;33.08;8.55;;;;;;;11.44;100.00;103210.19;5055902;28;20045;-44
2022/01/22 06:17:22;;;;;;;27.83;5.90;;;;;;;11.50;100.00;103211.44;5056039;28;20047;-43
2022/01/22 06:19:56;;;;;;;20.08;5.80;;;;;;;11.52;100.00;103216.66;5041286;28;20289;-43
2022/01/22 06:22:22;;;;;;;18.15;5.40;;;;;;;11.23;100.00;103223.72;5055766;28;20131;-45
2022/01/22 06:24:48;;;;;;;20.08;5.80;;;;;;;11.33;100.00;103227.28;5056456;28;20040;-44
2022/01/22 06:27:13;;;;;;;12.68;5.55;;;;;;;11.56;100.00;103229.66;5055710;28;20385;-41
2022/01/22 06:29:40;;;;;;;13.63;4.95;;;;;;;11.24;100.00;103217.38;5072640;28;20060;-43
2022/01/22 06:32:09;;;;;;;18.27;5.07;;;;;;;10.99;100.00;103219.63;5074192;28;20048;-42
2022/01/22 06:34:36;;;;;;;19.25;5.22;;;;;;;11.37;100.00;103230.50;5039505;28;20070;-42
2022/01/22 06:37:02;;;;;;;18.83;4.78;;;;;;;11.64;100.00;103220.03;5055024;28;20059;-44
2022/01/22 06:39:41;;;;;;;16.02;4.93;;;;;;;11.39;100.00;103225.00;5039786;28;20453;-41
2022/01/22 06:42:08;;;;;;;19.20;4.80;;;;;;;11.52;100.00;103227.38;5074125;28;20114;-43
2022/01/22 06:44:34;;;;;;;21.33;4.38;;;;;;;11.70;100.00;103233.72;5073403;28;20036;-44
2022/01/22 06:47:18;;;;;;;17.63;4.47;;;;;;;11.66;100.00;103242.16;5058355;28;20063;-42
2022/01/22 06:49:56;;;;;;;18.27;4.07;;;;;;;11.78;100.00;103238.34;5073986;28;20048;-42
2022/01/22 06:52:41;;;;;;;12.73;4.50;;;;;;;11.66;100.00;103234.13;5073324;28;20106;-43
2022/01/22 06:55:16;;;;;;;27.80;5.53;;;;;;;11.83;100.00;103238.75;5040622;28;20399;-43
2022/01/22 06:57:43;;;;;;;15.65;5.50;;;;;;;11.90;100.00;103242.53;5055473;28;20115;-45
2022/01/22 07:00:13;;;;;;;25.05;6.50;;;;;;;11.80;100.00;103247.09;5039629;28;20040;-43
2022/01/22 07:02:50;;;;;;;20.52;4.60;;;;;;;11.85;100.00;103254.69;5040682;28;20048;-42
2022/01/22 07:05:16;;;;;;;12.70;4.10;;;;;;;11.76;100.00;103243.84;5055404;28;20036;-42
2022/01/22 07:08:00;;;;;;;14.60;3.80;;;;;;;11.79;100.00;103248.09;5073563;28;20257;-43
2022/01/22 07:10:27;;;;;;;13.63;3.67;;;;;;;11.85;100.00;103252.88;5055206;28;20048;-42
2022/01/22 07:12:53;;;;;;;13.70;3.97;;;;;;;11.76;100.00;103253.72;5038679;28;20041;-42
2022/01/22 07:15:20;;;;;;;22.40;4.27;;;;;;;11.85;100.00;103255.53;5055256;28;20285;-43
2022/01/22 07:17:46;;;;;;;14.63;3.45;;;;;;;11.82;100.00;103250.47;5038730;28;20036;-41
2022/01/22 07:20:25;;;;;;;;;;;;;;;11.83;100.00;103254.84;5056314;28;20098;-44
2022/01/22 07:23:02;;;;;;;10.23;3.55;;;;;;;11.64;100.00;103257.56;5055729;28;19919;-45
2022/01/22 07:25:44;;;;;;;11.85;3.80;;;;;;;11.81;100.00;103256.84;5055728;28;20057;-42
2022/01/22 07:28:33;;;;;;;11.65;3.85;;;;;;;11.71;100.00;103255.97;5041306;28;20542;-41
2022/01/22 07:31:00;;;;;;;20.08;3.78;;;;;;;11.61;100.00;103256.84;5054994;28;20048;-44
2022/01/22 07:33:27;;;;;;;12.27;3.67;;;;;;;11.41;100.00;103264.03;5055724;28;20052;-42
2022/01/22 07:35:53;;;;;;;;;;;;;;;11.60;100.00;103257.84;5055112;28;20056;-43
2022/01/22 07:38:21;;;;;;;17.57;3.87;;;;;;;11.80;100.00;103265.00;5072963;28;19978;-43
2022/01/22 07:40:48;;;;;;;14.55;3.70;;;;;;;11.89;100.00;103266.84;5054912;28;20499;-45
2022/01/22 07:43:19;;;;;;;20.50;4.35;;;;;;;11.92;100.00;103261.19;5039541;28;20465;-44
2022/01/22 07:46:05;;;;;;;15.95;3.65;;;;;;;11.76;100.00;103264.44;5072632;28;20051;-42
2022/01/22 07:48:37;;;;;;;12.10;3.42;;;;;;;11.75;100.00;103260.91;5056700;28;20075;-43
2022/01/22 07:51:12;;;;;;;14.52;4.00;;;;;;;12.01;100.00;103259.50;5076813;28;20063;-43
2022/01/22 07:53:40;;;;;;;18.15;3.75;;;;;;;11.44;100.00;103265.59;5058502;28;20135;-43
2022/01/22 07:56:13;;;;;;;18.90;3.50;;;;;;;11.95;100.00;103262.72;5042725;28;20082;-47
2022/01/22 07:58:40;;;;;;;10.50;3.00;;;;;;;11.73;100.00;103262.91;5076428;28;20040;-47
2022/01/22 08:01:06;;;;;;;24.50;3.30;;;;;;;11.81;100.00;103270.22;5042318;28;20051;-48
2022/01/22 08:03:51;;;;;;;13.82;2.85;;;;;;;12.13;100.00;103261.00;5058516;28;20071;-48
2022/01/22 08:06:34;;;;;;;16.08;3.20;;;;;;;12.02;100.00;103263.88;5075666;28;20121;-46
2022/01/22 08:09:19;;;;;;;15.43;3.00;;;;;;;11.86;100.00;103259.91;5046439;28;20412;-44
2022/01/22 08:11:54;;;;;;;11.57;3.33;;;;;;;12.11;100.00;103264.81;5075985;28;20049;-46
2022/01/22 08:14:20;;;;;;;16.13;3.50;;;;;;;11.96;100.00;103262.56;5057903;28;20067;-45
2022/01/22 08:16:47;;;;;;;15.65;3.70;;;;;;;11.83;100.00;103262.88;5058802;28;20089;-47
2022/01/22 08:19:13;;;;;;;11.27;3.38;;;;;;;11.84;100.00;103259.22;5058063;28;20044;-43
2022/01/22 08:21:41;;;;;;;15.73;3.72;;;;;;;12.07;100.00;103258.91;5057863;28;20040;-45
2022/01/22 08:24:25;;;;;;;17.85;4.57;;;;;;;11.51;100.00;103264.03;5076178;28;20090;-48
2022/01/22 08:30:03;;;;;;;18.17;4.45;;;;;;;11.66;100.00;103260.94;4997205;28;20046;-47
2022/01/22 08:37:39;;;;;;;17.65;4.82;;;;;;;12.14;100.00;103269.91;5058383;28;20067;-42
2022/01/22 08:40:08;;;;;;;21.63;5.15;;;;;;;12.23;100.00;103269.00;5041445;28;20040;-43
2022/01/22 08:42:35;;;;;;;22.88;5.28;;;;;;;12.17;100.00;103269.59;5057892;28;20171;-44
2022/01/22 08:45:00;;;;;;;20.52;4.97;;;;;;;12.09;100.00;103278.38;5057698;28;20047;-42
2022/01/22 08:47:26;;;;;;;16.38;5.25;;;;;;;12.23;100.00;103278.91;5053890;28;20057;-44
2022/01/22 08:49:52;;;;;;;17.67;4.05;;;;;;;12.14;100.00;103275.28;5054116;28;20467;-42
2022/01/22 08:52:22;;;;;;;16.63;4.10;;;;;;;11.91;100.00;103286.31;5037214;28;20037;-48
2022/01/22 08:54:48;;;;;;;21.27;4.10;;;;;;;12.31;100.00;103287.06;5054516;28;20037;-43
2022/01/22 08:57:18;;;;;;;17.75;3.38;;;;;;;11.96;100.00;103285.84;5054325;28;20056;-42
2022/01/22 09:00:08;;;;;;;16.77;4.05;;;;;;;12.40;100.00;103290.72;5054210;28;20044;-48
2022/01/22 09:02:46;;;;;;;;;;;;;;;12.16;100.00;103290.22;5054570;28;20045;-46
2022/01/22 09:05:51;;;;;;;12.30;4.22;;;;;;;12.40;100.00;103280.81;5041922;28;19917;-42
2022/01/22 09:08:29;;;;;;;15.55;4.55;;;;;;;12.43;100.00;103295.78;5054259;28;20122;-44
2022/01/22 09:11:16;;;;;;;22.42;6.35;;;;;;;12.42;100.00;103294.91;5040542;28;20110;-42
2022/01/22 09:13:58;;;;;;;16.27;6.65;;;;;;;12.23;100.00;103293.16;5054081;28;20037;-42
2022/01/22 09:16:27;;;;;;;22.13;7.45;;;;;;;12.21;100.00;103295.16;5054211;28;20378;-43
2022/01/22 09:18:58;;;;;;;15.88;5.85;;;;;;;12.39;100.00;103294.38;5053535;28;20477;-45
2022/01/22 09:21:24;;;;;;;15.88;5.93;;;;;;;12.55;100.00;103307.16;5054363;28;20354;-43
2022/01/22 09:23:49;;;;;;;19.58;8.88;;;;;;;12.80;100.00;103318.22;5054851;28;20037;-44
2022/01/22 09:26:19;;;;;;;18.98;6.40;;;;;;;12.43;100.00;103310.03;5037218;28;20041;-49
2022/01/22 09:28:46;;;;;;;23.27;5.25;;;;;;;12.55;100.00;103312.53;5053833;28;20045;-46
2022/01/22 09:31:14;;;;;;;14.87;4.13;;;;;;;12.59;100.00;103316.63;5053157;28;20048;-43
2022/01/22 09:33:43;;;;;;;19.38;4.10;;;;;;;12.57;100.00;103323.97;5053070;28;20672;-44
2022/01/22 09:36:17;;;;;;;13.70;4.60;;;;;;;12.63;100.00;103331.44;5054647;28;20137;-45
2022/01/22 09:38:53;;;;;;;14.50;3.60;;;;;;;12.13;100.00;103322.69;5038666;28;20496;-42
2022/01/22 09:41:26;;;;;;;14.27;4.38;;;;;;;12.68;100.00;103331.81;5053125;28;20145;-42
2022/01/22 09:43:55;;;;;;;12.10;3.30;;;;;;;12.38;100.00;103333.78;5054606;28;20059;-45
2022/01/22 09:46:40;;;;;;;13.77;3.88;;;;;;;12.16;100.00;103329.63;5056007;28;20420;-42
2022/01/22 09:49:44;;;;;;;10.57;3.45;;;;;;;12.32;100.00;103332.53;5060175;28;20127;-46
2022/01/22 09:52:28;;;;;;;10.80;4.68;;;;;;;12.35;100.00;103331.41;5074166;28;20083;-43
2022/01/22 09:55:03;;;;;;;14.57;3.83;;;;;;;12.69;100.00;103336.22;5056758;28;20089;-45
2022/01/22 09:57:56;;;;;;;12.15;3.25;;;;;;;12.46;100.00;103333.91;5069883;28;20095;-46
2022/01/22 10:00:50;;;;;;;16.02;3.33;;;;;;;12.51;100.00;103340.66;5056462;28;20067;-46
2022/01/22 10:03:39;;;;;;;6.20;2.57;;;;;;;12.77;100.00;103347.06;5056047;28;20071;-46
2022/01/22 10:06:53;;;;;;;9.35;3.75;;;;;;;12.36;100.00;103335.75;5056430;28;20277;-42
2022/01/22 10:09:26;;;;;;;7.90;3.10;;;;;;;12.63;100.00;103355.59;5073625;28;20045;-47
2022/01/22 10:12:16;;;;;;;11.80;4.53;;;;;;;12.89;100.00;103349.53;5043413;28;20419;-44
2022/01/22 10:15:13;;;;;;;15.50;3.20;;;;;;;12.77;100.00;103349.75;5058944;28;20346;-42
2022/01/22 10:17:44;;;;;;;12.07;3.00;;;;;;;12.80;100.00;103358.50;5074057;28;20277;-46
2022/01/22 10:20:26;;;;;;;13.87;3.43;;;;;;;12.44;100.00;103357.34;5073394;28;20692;-43
2022/01/22 10:22:55;;;;;;;16.75;3.38;;;;;;;12.27;100.00;103347.38;5073386;28;20267;-48
2022/01/22 10:25:27;;;;;;;16.65;4.93;;;;;;;12.60;100.00;103350.50;5073553;28;20074;-45
2022/01/22 10:27:57;;;;;;;10.10;2.90;;;;;;;12.50;100.00;103349.72;5074029;28;20041;-42
2022/01/22 10:30:25;;;;;;;15.02;3.58;;;;;;;12.83;100.00;103358.19;5073179;28;20044;-42
2022/01/22 10:32:59;;;;;;;10.98;4.22;;;;;;;12.81;100.00;103357.50;5073671;28;20090;-43
2022/01/22 10:35:43;;;;;;;18.27;4.03;;;;;;;12.65;100.00;103353.59;5073795;28;20127;-42
2022/01/22 10:38:38;;;;;;;16.37;3.70;;;;;;;12.77;100.00;103357.78;5074003;28;20053;-43
2022/01/22 10:41:06;;;;;;;12.30;4.13;;;;;;;13.07;100.00;103360.34;5073746;28;20269;-43
2022/01/22 10:43:33;;;;;;;23.97;4.50;;;;;;;13.18;100.00;103359.28;5055721;28;20274;-44
2022/01/22 10:46:20;;;;;;;9.68;3.75;;;;;;;13.22;100.00;103357.97;5072941;28;20261;-43
2022/01/22 10:48:57;;;;;;;21.20;6.45;;;;;;;13.17;100.00;103352.22;5073697;28;20048;-45
2022/01/22 10:51:25;;;;;;;11.53;4.03;;;;;;;12.85;100.00;103354.38;5073169;28;20048;-43
2022/01/22 10:53:55;;;;;;;14.63;4.67;;;;;;;13.13;100.00;103358.88;5073366;28;20283;-57
2022/01/22 10:56:23;;;;;;;9.90;3.67;;;;;;;13.10;100.00;103353.81;5072734;28;20327;-56
2022/01/22 10:59:00;;;;;;;13.50;4.20;;;;;;;13.00;100.00;103346.66;5072981;28;20304;-55
2022/01/22 11:01:29;;;;;;;10.87;4.30;;;;;;;13.13;100.00;103357.03;5055718;28;20293;-56
2022/01/22 11:04:19;;;;;;;9.00;3.80;;;;;;;12.91;100.00;103350.22;5073058;28;20268;-56
2022/01/22 11:07:00;;;;;;;7.00;3.13;;;;;;;13.19;100.00;103359.13;5073703;28;20289;-56
2022/01/22 11:09:29;;;;;;;12.77;3.93;;;;;;;13.30;100.00;103358.06;5073789;28;20301;-55
2022/01/22 11:11:56;;;;;;;11.47;3.40;;;;;;;12.83;100.00;103352.81;5072623;28;20245;-59
2022/01/22 11:14:22;;;;;;;8.87;4.10;;;;;;;13.21;100.00;103345.53;5073141;28;20284;-53
2022/01/22 11:16:50;;;;;;;35.85;6.05;;;;;;;12.86;100.00;103339.94;5073386;28;20364;-55
2022/01/22 11:19:18;;;;;;;16.40;4.53;;;;;;;13.16;100.00;103337.94;5073276;28;20040;-54
2022/01/22 11:21:47;;;;;;;14.87;4.60;;;;;;;13.24;100.00;103342.56;5073481;28;20303;-57
2022/01/22 11:24:16;;;;;;;14.43;4.17;;;;;;;13.00;100.00;103338.59;5075601;28;20253;-56
2022/01/22 11:26:45;;;;;;;10.07;3.83;;;;;;;13.01;100.00;103334.06;5076773;28;20328;-55
2022/01/22 11:29:14;;;;;;;15.07;4.43;;;;;;;12.94;100.00;103336.53;5076863;28;20737;-56
2022/01/22 11:31:45;;;;;;;14.93;4.90;;;;;;;12.91;100.00;103344.84;5058985;28;20641;-54
2022/01/22 11:34:12;;;;;;;15.20;4.33;;;;;;;13.23;100.00;103356.97;5076528;28;20265;-53
2022/01/22 11:36:45;;;;;;;14.07;5.30;;;;;;;13.36;100.00;103340.50;5076739;28;20281;-52
2022/01/22 11:39:19;;;;;;;20.10;5.57;;;;;;;13.40;100.00;103354.47;5059548;28;20729;-55
2022/01/22 11:42:01;;;;;;;13.97;5.37;;;;;;;13.31;100.00;103346.31;5076355;28;20353;-52
2022/01/22 11:44:34;;;;;;;13.13;4.27;;;;;;;12.79;100.00;103356.81;5076938;28;20292;-56
2022/01/22 11:47:10;;;;;;;20.70;5.23;;;;;;;12.61;100.00;103355.75;5076203;28;20837;-56
2022/01/22 11:49:37;;;;;;;10.75;5.10;;;;;;;12.68;100.00;103353.28;5076746;28;20351;-57
2022/01/22 11:52:08;;;;;;;13.23;5.38;;;;;;;13.03;100.00;103351.72;5076387;28;20071;-54
2022/01/22 11:54:49;;;;;;;14.97;5.67;;;;;;;12.99;100.00;103355.72;5075800;28;20043;-57
2022/01/22 11:57:16;;;;;;;18.20;4.87;;;;;;;13.12;100.00;103343.75;5076051;28;20277;-55
2022/01/22 11:59:43;;;;;;;16.33;6.33;;;;;;;13.01;100.00;103347.50;5076106;28;20322;-56
2022/01/22 12:02:16;;;;;;;12.60;4.83;;;;;;;12.76;100.00;103342.69;5075890;28;20265;-56
2022/01/22 12:04:42;;;;;;;17.83;5.80;;;;;;;12.85;100.00;103337.41;5057784;28;20269;-52
2022/01/22 12:07:07;;;;;;;15.73;5.67;;;;;;;12.84;100.00;103341.94;5075930;28;20284;-51
2022/01/22 12:09:53;;;;;;;13.57;5.33;;;;;;;12.91;100.00;103332.28;5076362;28;20040;-55
2022/01/22 12:15:22;;;;;;;18.60;5.17;;;;;;;13.12;100.00;103327.63;5076134;28;20714;-54
2022/01/22 12:21:31;;;;;;;18.07;6.60;;;;;;;13.02;100.00;103325.88;5076191;28;20752;-51
2022/01/22 12:23:29;;;;;;;17.17;6.72;;;;;;;13.12;100.00;103323.13;5074563;28;20625;-53
2022/01/22 12:25:56;;;;;;;21.93;6.47;;;;;;;12.81;100.00;103320.75;5057517;28;20094;-56
2022/01/22 12:28:39;;;;;;;;;;;;;;;13.12;100.00;103319.56;5075943;28;20757;-52
2022/01/22 12:31:08;;;;;;;18.73;6.03;;;;;;;12.67;100.00;103318.56;5075547;28;19958;-56
2022/01/22 12:33:34;;;;;;;19.03;5.77;;;;;;;12.28;100.00;103315.03;5075256;28;20276;-57
2022/01/22 12:36:04;;;;;;;17.27;6.83;;;;;;;12.07;100.00;103323.28;5075415;28;20265;-53
2022/01/22 12:38:46;;;;;;;14.87;6.47;;;;;;;12.62;100.00;103335.09;5075750;28;20060;-55
2022/01/22 12:46:52;;;;;;;17.17;6.60;;;;;;;13.18;100.00;103335.09;5072559;28;20293;-57
2022/01/22 12:49:19;;;;;;;17.00;5.65;;;;;;;13.15;100.00;103338.09;5041482;28;20108;-55
2022/01/22 12:51:46;;;;;;;17.63;8.13;;;;;;;13.07;100.00;103335.31;5041024;28;20043;-56
2022/01/22 12:54:11;;;;;;;20.40;6.43;;;;;;;13.01;100.00;103337.59;5075024;28;20273;-56
2022/01/22 12:56:51;;;;;;;17.70;7.07;;;;;;;13.04;100.00;103339.97;5074889;28;20383;-56
2022/01/22 12:59:17;;;;;;;17.93;6.80;;;;;;;13.24;100.00;103344.38;5075694;28;20097;-56
2022/01/22 13:01:45;;;;;;;18.00;8.20;;;;;;;13.09;100.00;103346.75;5074906;28;20372;-54